createdAt,value
2018-11-22T12:17:57.701Z,13.00
2018-11-22T12:20:25.912Z,13.70
2018-11-22T12:22:55.631Z,13.85
2018-11-22T12:25:25.365Z,13.13
2018-11-22T12:27:55.344Z,13.58
2018-11-22T12:30:25.121Z,14.55
2018-11-22T12:32:59.851Z,14.15
2018-11-22T12:37:43.149Z,13.93
2018-11-22T12:40:07.845Z,14.80
2018-11-22T12:45:10.591Z,14.55
2018-11-22T12:47:38.844Z,15.55
2018-11-22T12:50:08.600Z,15.40
2018-11-22T12:52:36.787Z,15.05
2018-11-22T12:55:05.897Z,15.10
2018-11-22T12:57:34.198Z,14.90
2018-11-22T13:00:02.437Z,14.90
2018-11-22T13:02:30.649Z,14.87
2018-11-22T13:04:58.831Z,14.60
2018-11-22T13:07:27.033Z,15.10
2018-11-22T13:09:55.283Z,15.13
2018-11-22T13:12:23.494Z,14.90
2018-11-22T13:14:51.719Z,15.70
2018-11-22T13:17:19.940Z,15.38
2018-11-22T13:19:48.258Z,15.38
2018-11-22T13:22:16.455Z,14.47
2018-11-22T13:24:44.671Z,14.65
2018-11-22T13:27:12.930Z,15.03
2018-11-22T13:29:41.189Z,15.50
2018-11-22T13:32:09.435Z,15.10
2018-11-22T13:34:37.674Z,15.90
2018-11-22T13:37:05.916Z,16.50
2018-11-22T13:39:34.117Z,16.60
2018-11-22T13:42:02.371Z,15.38
2018-11-22T13:44:30.610Z,16.37
2018-11-22T13:46:58.839Z,16.50
2018-11-22T13:49:27.064Z,15.95
2018-11-22T13:51:55.307Z,16.77
2018-11-22T13:54:23.549Z,16.00
2018-11-22T13:56:51.877Z,15.58
2018-11-22T13:59:20.160Z,14.75
2018-11-22T14:01:48.411Z,15.28
2018-11-22T14:04:16.639Z,15.60
2018-11-22T14:06:44.916Z,15.33
2018-11-22T14:09:13.168Z,15.18
2018-11-22T14:11:41.531Z,15.58
2018-11-22T14:14:11.692Z,16.05
2018-11-22T14:16:39.967Z,14.93
2018-11-22T14:19:08.216Z,16.23
2018-11-22T14:21:36.493Z,14.87
2018-11-22T14:24:04.767Z,16.17
2018-11-22T14:26:33.410Z,15.90
2018-11-22T14:29:01.380Z,17.00
2018-11-22T14:31:29.641Z,17.40
2018-11-22T14:33:57.928Z,17.30
2018-11-22T14:36:26.140Z,17.35
2018-11-22T14:38:54.351Z,17.35
2018-11-22T14:41:22.563Z,17.40
2018-11-22T14:43:50.837Z,17.65
2018-11-22T14:46:19.091Z,17.60
2018-11-22T14:48:47.295Z,16.80
2018-11-22T14:51:20.585Z,18.30
2018-11-22T14:53:48.796Z,17.67
2018-11-22T14:56:17.066Z,17.62
2018-11-22T14:58:45.300Z,17.00
2018-11-22T15:01:13.532Z,17.98
2018-11-22T15:03:41.810Z,18.80
2018-11-22T15:06:10.045Z,20.60
2018-11-22T15:08:38.249Z,20.02
2018-11-22T15:11:06.464Z,17.27
2018-11-22T15:13:34.755Z,17.07
2018-11-22T15:16:03.224Z,17.50
2018-11-22T15:18:31.507Z,17.10
2018-11-22T15:21:01.211Z,16.50
2018-11-22T15:23:27.971Z,16.47
2018-11-22T15:25:56.168Z,15.97
2018-11-22T15:28:24.401Z,18.10
2018-11-22T15:30:52.604Z,17.20
2018-11-22T15:33:20.843Z,16.10
2018-11-22T15:35:49.104Z,16.63
2018-11-22T15:38:17.328Z,17.12
2018-11-22T15:40:45.529Z,16.20
2018-11-22T15:43:13.861Z,16.70
2018-11-22T15:45:42.113Z,18.52
2018-11-22T15:48:10.331Z,18.33
2018-11-22T15:50:38.572Z,16.23
2018-11-22T15:53:06.816Z,17.30
2018-11-22T15:55:35.604Z,18.10
2018-11-22T15:58:04.392Z,16.48
2018-11-22T16:00:34.096Z,18.45
2018-11-22T16:03:04.495Z,17.07
2018-11-22T16:05:33.569Z,16.42
2018-11-22T16:08:02.128Z,19.30
2018-11-22T16:10:32.727Z,17.10
2018-11-22T16:13:07.624Z,15.80
2018-11-22T16:15:41.709Z,19.15
2018-11-22T16:18:10.439Z,16.77
2018-11-22T16:20:39.196Z,19.02
2018-11-22T16:23:07.912Z,19.10
2018-11-22T16:25:36.512Z,17.60
2018-11-22T16:28:05.334Z,17.70
2018-11-22T16:30:34.327Z,18.27
2018-11-22T16:33:03.672Z,18.62
2018-11-22T16:35:33.697Z,17.00
2018-11-22T16:38:02.241Z,19.75
2018-11-22T16:40:31.337Z,17.23
2018-11-22T16:43:01.304Z,16.45
2018-11-22T16:45:32.589Z,17.07
2018-11-22T16:48:03.412Z,16.73
2018-11-22T16:50:32.896Z,15.50
2018-11-22T16:53:01.411Z,16.55
2018-11-22T16:55:30.043Z,18.48
2018-11-22T16:57:59.381Z,16.62
2018-11-22T17:00:31.716Z,17.07
2018-11-22T17:03:01.552Z,15.68
2018-11-22T17:05:30.108Z,17.85
2018-11-22T17:07:58.728Z,18.02
2018-11-22T17:10:28.462Z,18.95
2018-11-22T17:12:58.007Z,17.98
2018-11-22T17:15:27.683Z,19.20
2018-11-22T17:17:57.360Z,19.90
2018-11-22T17:20:27.239Z,18.73
2018-11-22T17:22:56.289Z,17.70
2018-11-22T17:25:26.425Z,18.50
2018-11-22T17:27:56.467Z,17.85
2018-11-22T17:30:27.193Z,16.27
2018-11-22T17:32:55.554Z,19.25
2018-11-22T17:35:26.156Z,19.87
2018-11-22T17:37:56.178Z,19.32
2018-11-22T17:40:26.793Z,20.00
2018-11-22T17:42:55.141Z,20.85
2018-11-22T17:45:24.875Z,20.60
2018-11-22T17:47:53.524Z,18.80
2018-11-22T17:50:23.334Z,19.82
2018-11-22T17:52:51.639Z,22.95
2018-11-22T17:55:21.306Z,21.12
2018-11-22T17:57:49.536Z,22.22
2018-11-22T18:00:20.975Z,21.37
2018-11-22T18:02:50.398Z,23.02
2018-11-22T18:05:18.660Z,21.80
2018-11-22T18:07:46.906Z,23.83
2018-11-22T18:10:16.773Z,24.37
2018-11-22T18:12:45.927Z,22.32
2018-11-22T18:15:15.425Z,19.55
2018-11-22T18:17:44.033Z,20.32
2018-11-22T18:20:17.622Z,20.08
2018-11-22T18:22:46.488Z,23.02
2018-11-22T18:25:17.819Z,21.52
2018-11-22T18:27:46.141Z,20.05
2018-11-22T18:30:18.601Z,20.95
2018-11-22T18:32:49.243Z,20.70
2018-11-22T18:35:16.792Z,21.80
2018-11-22T18:37:45.084Z,20.25
2018-11-22T18:40:15.491Z,19.32
2018-11-22T18:42:44.520Z,20.57
2018-11-22T18:45:14.480Z,19.17
2018-11-22T18:47:43.620Z,19.17
2018-11-22T18:50:15.661Z,20.00
2018-11-22T18:52:44.958Z,20.72
2018-11-22T18:55:13.695Z,19.05
2018-11-22T18:57:42.642Z,20.60
2018-11-22T19:00:17.908Z,19.27
2018-11-22T19:02:46.446Z,19.85
2018-11-22T19:05:15.483Z,19.37
2018-11-22T19:07:44.962Z,18.75
2018-11-22T19:10:16.390Z,19.20
2018-11-22T19:12:45.505Z,20.50
2018-11-22T19:15:15.046Z,20.95
2018-11-22T19:17:43.368Z,20.57
2018-11-22T19:20:17.799Z,20.45
2018-11-22T19:22:46.960Z,19.45
2018-11-22T19:25:15.393Z,18.67
2018-11-22T19:27:43.980Z,19.82
2018-11-22T19:30:14.364Z,18.60
2018-11-22T19:32:43.289Z,21.17
2018-11-22T19:35:12.539Z,18.45
2018-11-22T19:37:40.939Z,21.17
2018-11-22T19:40:12.280Z,18.42
2018-11-22T19:42:40.930Z,20.12
2018-11-22T19:45:10.608Z,19.45
2018-11-22T19:47:38.988Z,18.80
2018-11-22T19:50:09.996Z,19.10
2018-11-22T19:52:38.406Z,17.40
2018-11-22T19:55:08.735Z,15.60
2018-11-22T19:57:36.990Z,19.05
2018-11-22T20:00:07.065Z,17.52
2018-11-22T20:02:35.356Z,18.82
2018-11-22T20:05:03.780Z,19.05
2018-11-22T20:07:32.076Z,18.62
2018-11-22T20:10:00.344Z,16.93
2018-11-22T20:12:28.714Z,18.40
2018-11-22T20:14:57.028Z,17.52
2018-11-22T20:17:25.296Z,19.65
2018-11-22T20:19:53.707Z,16.70
2018-11-22T20:22:22.037Z,18.10
2018-11-22T20:24:50.304Z,17.82
2018-11-22T20:27:18.543Z,19.10
2018-11-22T20:29:46.807Z,16.27
2018-11-22T20:32:15.079Z,19.75
2018-11-22T20:34:43.434Z,17.80
2018-11-22T20:37:11.712Z,18.42
2018-11-22T20:39:40.313Z,18.57
2018-11-22T20:42:08.558Z,15.63
2018-11-22T20:44:36.912Z,18.52
2018-11-22T20:47:05.179Z,15.83
2018-11-22T20:49:33.468Z,17.65
2018-11-22T20:52:01.760Z,13.72
2018-11-22T20:54:30.033Z,17.00
2018-11-22T20:56:58.317Z,18.57
2018-11-22T20:59:26.548Z,16.90
2018-11-22T21:01:54.849Z,15.50
2018-11-22T21:04:23.188Z,17.37
2018-11-22T21:06:51.427Z,15.30
2018-11-22T21:09:19.686Z,17.10
2018-11-22T21:11:47.948Z,16.20
2018-11-22T21:14:16.147Z,15.05
2018-11-22T21:16:44.375Z,15.28
2018-11-22T21:19:12.600Z,17.02
2018-11-22T21:21:40.811Z,15.53
2018-11-22T21:24:09.075Z,15.88
2018-11-22T21:26:37.336Z,15.48
2018-11-22T21:29:05.769Z,17.10
2018-11-22T21:31:34.000Z,16.05
2018-11-22T21:34:02.227Z,17.48
2018-11-22T21:36:30.498Z,16.42
2018-11-22T21:38:58.764Z,16.30
2018-11-22T21:41:26.988Z,16.30
2018-11-22T21:43:55.183Z,15.55
2018-11-22T21:46:28.715Z,17.57
2018-11-22T21:48:57.097Z,16.95
2018-11-22T21:51:25.312Z,15.13
2018-11-22T21:56:28.190Z,16.67
2018-11-22T21:58:56.435Z,15.90
2018-11-22T22:01:24.640Z,15.95
2018-11-22T22:03:52.924Z,16.57
2018-11-22T22:06:21.163Z,17.40
2018-11-22T22:08:49.390Z,17.23
2018-11-22T22:11:17.664Z,17.98
2018-11-22T22:13:45.875Z,18.02
2018-11-22T22:16:14.115Z,16.87
2018-11-22T22:18:42.323Z,17.20
2018-11-22T22:21:10.536Z,15.45
2018-11-22T22:23:38.752Z,14.83
2018-11-22T22:26:06.999Z,13.05
2018-11-22T22:28:35.223Z,13.75
2018-11-22T22:31:03.436Z,15.35
2018-11-22T22:33:31.632Z,13.80
2018-11-22T22:35:59.820Z,14.07
2018-11-22T22:38:28.031Z,15.15
2018-11-22T22:40:56.276Z,13.22
2018-11-22T22:43:24.494Z,15.53
2018-11-22T22:45:52.779Z,14.70
2018-11-22T22:48:20.993Z,14.60
2018-11-22T22:50:49.196Z,14.33
2018-11-22T22:53:17.403Z,13.00
2018-11-22T22:55:45.679Z,12.88
2018-11-22T22:58:13.987Z,12.07
2018-11-22T23:00:49.225Z,13.15
2018-11-22T23:03:17.537Z,11.60
2018-11-22T23:05:45.747Z,15.35
2018-11-22T23:08:13.955Z,12.15
2018-11-22T23:10:42.162Z,12.95
2018-11-22T23:13:10.367Z,14.35
2018-11-22T23:15:38.594Z,12.55
2018-11-22T23:18:06.790Z,14.33
2018-11-22T23:20:36.314Z,14.05
2018-11-22T23:23:04.670Z,12.73
2018-11-22T23:25:32.880Z,15.40
2018-11-22T23:28:01.083Z,13.88
2018-11-22T23:30:31.413Z,14.28
2018-11-22T23:33:01.186Z,12.05
2018-11-22T23:35:29.403Z,12.65
2018-11-22T23:37:57.642Z,12.30
2018-11-22T23:40:27.242Z,13.00
2018-11-22T23:42:55.487Z,10.90
2018-11-22T23:45:25.135Z,13.50
2018-11-22T23:47:53.353Z,12.70
2018-11-22T23:50:22.703Z,11.70
2018-11-22T23:52:52.251Z,12.82
2018-11-22T23:55:20.476Z,14.45
2018-11-22T23:57:48.826Z,12.75
